Time;durP1;ratioP1;P1;durP2;ratioP2;P2;SDS_P1;SDS_P2;PMS_P1;PMS_P2;Temp;Humidity;BMP_temperature;BMP_pressure;BME280_temperature;BME280_humidity;BME280_pressure;Samples;Min_cycle;Max_cycle;Signal;HPM_P1;HPM_P2
2023/01/20 00:01:08;;;;;;;12.03;7.37;;;-0.40;99.90;;;;;;4953389;28;20454;-72
2023/01/20 00:03:34;;;;;;;10.40;5.90;;;-0.30;99.90;;;;;;4958320;28;20401;-73
2023/01/20 00:05:59;;;;;;;12.33;6.10;;;-0.30;99.90;;;;;;4956072;28;20778;-73
2023/01/20 00:08:25;;;;;;;7.93;5.47;;;-0.30;99.90;;;;;;4961242;28;20343;-73
2023/01/20 00:10:50;;;;;;;10.13;6.10;;;-0.30;99.90;;;;;;4966959;28;20213;-74
2023/01/20 00:13:16;;;;;;;8.77;5.47;;;-0.30;99.90;;;;;;4952501;28;20206;-72
2023/01/20 00:15:41;;;;;;;6.73;4.43;;;-0.30;99.90;;;;;;4953324;28;20188;-71
2023/01/20 00:18:07;;;;;;;8.33;4.70;;;-0.20;99.90;;;;;;4953324;28;20187;-73
2023/01/20 00:20:32;;;;;;;11.40;6.17;;;-0.20;99.90;;;;;;4955687;28;20678;-72
2023/01/20 00:22:58;;;;;;;11.00;5.70;;;-0.30;99.90;;;;;;4970690;28;20184;-73
2023/01/20 00:25:23;;;;;;;8.90;6.03;;;-0.20;99.90;;;;;;4970521;28;20207;-73
2023/01/20 00:27:52;;;;;;;12.27;6.53;;;-0.20;99.90;;;;;;4972215;28;20215;-73
2023/01/20 00:30:17;;;;;;;13.30;6.47;;;-0.20;99.90;;;;;;4971628;28;20245;-72
2023/01/20 00:32:44;;;;;;;10.63;6.60;;;-0.20;99.90;;;;;;4971573;28;20891;-73
2023/01/20 00:35:10;;;;;;;9.90;5.70;;;-0.20;99.90;;;;;;4972263;28;20447;-73
2023/01/20 00:37:51;;;;;;;13.33;7.07;;;-0.20;99.90;;;;;;4946157;28;20450;-73
2023/01/20 00:40:16;;;;;;;13.77;6.97;;;-0.20;99.90;;;;;;4952757;28;20443;-72
2023/01/20 00:42:42;;;;;;;10.90;6.20;;;-0.20;99.90;;;;;;4964518;28;20213;-73
2023/01/20 00:45:07;;;;;;;12.30;7.30;;;-0.20;99.90;;;;;;4971873;28;20742;-71
2023/01/20 00:47:33;;;;;;;10.23;6.20;;;-0.20;99.90;;;;;;4971195;28;20241;-71
2023/01/20 00:49:58;;;;;;;13.07;7.50;;;-0.20;99.90;;;;;;4965750;28;20239;-72
2023/01/20 00:52:24;;;;;;;12.23;7.40;;;-0.20;99.90;;;;;;4952251;28;20219;-73
2023/01/20 00:54:49;;;;;;;12.37;7.37;;;-0.10;99.90;;;;;;4952888;28;20266;-73
2023/01/20 00:57:15;;;;;;;13.53;7.00;;;-0.10;99.90;;;;;;4952613;28;20266;-73
2023/01/20 00:59:40;;;;;;;8.77;6.07;;;-0.10;99.90;;;;;;4952817;28;20201;-72
2023/01/20 01:02:06;;;;;;;12.13;7.00;;;-0.10;99.90;;;;;;4952551;28;20223;-71
2023/01/20 01:04:31;;;;;;;11.73;6.10;;;-0.10;99.90;;;;;;4952311;28;20199;-73
2023/01/20 01:06:57;;;;;;;11.77;5.77;;;-0.10;99.90;;;;;;4953236;28;20204;-72
2023/01/20 01:09:22;;;;;;;10.80;6.33;;;-0.10;99.90;;;;;;4956097;28;20338;-72
2023/01/20 01:11:48;;;;;;;10.90;6.10;;;-0.20;99.90;;;;;;4956844;28;20204;-73
2023/01/20 01:14:14;;;;;;;10.43;5.73;;;-0.10;99.90;;;;;;4971839;28;20208;-72
2023/01/20 01:16:39;;;;;;;8.83;6.10;;;-0.10;99.90;;;;;;4964178;28;20433;-71
2023/01/20 01:19:05;;;;;;;9.60;6.83;;;-0.20;99.90;;;;;;4963340;28;20264;-72
2023/01/20 01:21:31;;;;;;;12.60;6.80;;;-0.20;99.90;;;;;;4964746;28;20216;-72
2023/01/20 01:23:56;;;;;;;8.63;5.90;;;-0.20;99.90;;;;;;4956348;28;20224;-73
2023/01/20 01:26:22;;;;;;;11.57;6.00;;;-0.20;99.90;;;;;;4956351;28;20826;-72
2023/01/20 01:28:48;;;;;;;9.40;6.30;;;-0.20;99.90;;;;;;4956140;28;20270;-73
2023/01/20 01:31:15;;;;;;;12.40;6.37;;;-0.10;99.90;;;;;;4955823;28;20225;-71
2023/01/20 01:33:41;;;;;;;10.83;6.00;;;-0.10;99.90;;;;;;4948510;29;20486;-73
2023/01/20 01:36:14;;;;;;;13.00;6.83;;;-0.10;99.90;;;;;;4956311;28;20417;-73
2023/01/20 01:38:40;;;;;;;10.47;6.83;;;-0.10;99.90;;;;;;4948329;29;20249;-73
2023/01/20 01:41:05;;;;;;;8.30;6.00;;;-0.20;99.90;;;;;;4956035;28;20451;-73
2023/01/20 01:43:36;;;;;;;9.87;6.80;;;-0.10;99.90;;;;;;4955314;28;20681;-73
2023/01/20 01:46:02;;;;;;;10.87;6.70;;;-0.10;99.90;;;;;;4956322;28;20188;-73
2023/01/20 01:48:40;;;;;;;8.97;6.07;;;-0.10;99.90;;;;;;4957102;28;20478;-73
2023/01/20 01:51:11;;;;;;;11.63;7.27;;;0.00;99.90;;;;;;4974942;28;20438;-72
2023/01/20 01:53:42;;;;;;;8.90;6.60;;;0.00;99.90;;;;;;4974167;28;20428;-73
2023/01/20 01:56:09;;;;;;;17.53;6.97;;;0.00;99.90;;;;;;4974906;28;20440;-73
2023/01/20 01:58:37;;;;;;;15.00;7.50;;;0.00;99.90;;;;;;4963719;28;20471;-73
2023/01/20 03:31:47;;;;;;;14.13;8.17;;;0.30;99.90;;;;;;5463345;23;20515;-72
2023/01/20 03:34:17;;;;;;;12.83;8.80;;;0.20;99.90;;;;;;4952133;28;20429;-72
2023/01/20 03:36:44;;;;;;;13.20;8.27;;;0.20;99.90;;;;;;4953667;28;20586;-73
2023/01/20 03:39:10;;;;;;;15.93;8.60;;;0.20;99.90;;;;;;4954088;28;20924;-73
2023/01/20 03:42:08;;;;;;;15.87;9.17;;;0.20;99.90;;;;;;4943726;28;20462;-74
2023/01/20 03:45:07;;;;;;;15.40;7.93;;;0.10;99.90;;;;;;4934803;29;20440;-74
2023/01/20 03:47:48;;;;;;;14.20;8.13;;;0.20;99.90;;;;;;4953367;28;20492;-73
2023/01/20 03:50:46;;;;;;;10.37;6.90;;;0.20;99.90;;;;;;4953859;28;20479;-73
2023/01/20 03:53:40;;;;;;;14.30;8.50;;;0.20;99.90;;;;;;4929928;29;20767;-73
2023/01/20 03:56:20;;;;;;;18.90;9.77;;;0.20;99.90;;;;;;4936679;29;20802;-73
2023/01/20 03:58:49;;;;;;;13.10;8.47;;;0.20;99.90;;;;;;4947011;29;20501;-73
2023/01/20 04:01:18;;;;;;;17.57;9.07;;;0.20;99.90;;;;;;4934035;29;20464;-74
2023/01/20 04:03:46;;;;;;;13.30;9.93;;;0.20;99.90;;;;;;4950680;29;20440;-72
2023/01/20 04:06:15;;;;;;;15.83;9.77;;;0.20;99.90;;;;;;4953102;28;20449;-75
2023/01/20 04:08:48;;;;;;;19.00;10.80;;;0.20;99.90;;;;;;4952559;28;20895;-74
2023/01/20 04:11:13;;;;;;;15.93;10.20;;;0.20;99.90;;;;;;4938716;28;20452;-74
2023/01/20 04:13:39;;;;;;;16.07;10.67;;;0.20;99.90;;;;;;4933438;29;20428;-74
2023/01/20 04:16:12;;;;;;;18.07;11.57;;;0.20;99.90;;;;;;4934249;29;20473;-74
2023/01/20 04:18:42;;;;;;;18.07;10.90;;;0.20;99.90;;;;;;4933097;29;20308;-74
2023/01/20 04:21:13;;;;;;;20.57;12.03;;;0.20;99.90;;;;;;4933656;29;20495;-74
2023/01/20 04:23:42;;;;;;;17.03;11.63;;;0.10;99.90;;;;;;4941917;29;20521;-72
2023/01/20 04:26:08;;;;;;;18.77;10.90;;;0.20;99.90;;;;;;4953237;28;20438;-74
2023/01/20 04:28:33;;;;;;;21.10;10.53;;;0.10;99.90;;;;;;4952341;28;21003;-74
2023/01/20 04:30:59;;;;;;;17.13;11.03;;;0.10;99.90;;;;;;4948075;28;20215;-73
2023/01/20 04:33:24;;;;;;;24.60;10.80;;;0.00;99.90;;;;;;4932246;29;20193;-72
2023/01/20 04:35:50;;;;;;;19.47;10.83;;;0.10;99.90;;;;;;4934269;29;20187;-73
2023/01/20 04:38:15;;;;;;;18.83;10.17;;;0.10;99.90;;;;;;4933979;29;20202;-74
2023/01/20 04:40:41;;;;;;;20.57;11.90;;;0.00;99.90;;;;;;4933508;29;20577;-74
2023/01/20 04:43:08;;;;;;;16.97;11.53;;;0.00;99.90;;;;;;4932882;29;20193;-74
2023/01/20 04:45:34;;;;;;;17.10;10.80;;;0.00;99.90;;;;;;4950316;29;20195;-74
2023/01/20 04:48:00;;;;;;;19.03;11.30;;;-0.10;99.90;;;;;;4952866;28;20435;-74
2023/01/20 04:50:25;;;;;;;17.10;10.17;;;-0.10;99.90;;;;;;4952707;28;20674;-74
2023/01/20 04:52:54;;;;;;;16.37;11.27;;;-0.10;99.90;;;;;;4952131;29;20235;-74
2023/01/20 04:55:20;;;;;;;15.13;11.10;;;-0.10;99.90;;;;;;4951449;28;20739;-74
2023/01/20 04:57:46;;;;;;;12.53;10.03;;;-0.10;99.90;;;;;;4951884;28;20457;-74
2023/01/20 05:00:17;;;;;;;17.37;10.67;;;-0.20;99.90;;;;;;4951519;28;20198;-74
2023/01/20 05:02:43;;;;;;;14.50;9.77;;;-0.10;99.90;;;;;;4934228;28;20480;-74
2023/01/20 05:05:09;;;;;;;14.73;10.47;;;-0.10;99.90;;;;;;4933672;29;20521;-73
2023/01/20 05:07:34;;;;;;;15.33;10.17;;;-0.10;99.90;;;;;;4933532;29;20891;-73
2023/01/20 05:10:00;;;;;;;14.47;9.57;;;-0.10;99.90;;;;;;4931973;29;20227;-73
2023/01/20 05:12:25;;;;;;;15.40;9.47;;;-0.10;99.90;;;;;;4933394;29;20582;-73
2023/01/20 05:14:51;;;;;;;16.47;10.07;;;-0.10;99.90;;;;;;4951888;29;20329;-73
2023/01/20 05:17:16;;;;;;;17.07;9.80;;;0.00;99.90;;;;;;4952579;28;20208;-73
2023/01/20 05:19:42;;;;;;;16.60;9.83;;;0.00;99.90;;;;;;4951814;28;20197;-73
2023/01/20 05:22:08;;;;;;;14.00;8.90;;;-0.10;99.90;;;;;;4951993;28;20213;-73
2023/01/20 05:24:33;;;;;;;11.57;8.30;;;0.00;99.90;;;;;;4951923;28;20538;-74
2023/01/20 05:27:00;;;;;;;15.67;9.63;;;0.00;99.90;;;;;;4952407;28;20199;-74
2023/01/20 05:29:26;;;;;;;14.30;9.30;;;0.00;99.90;;;;;;4952315;28;20289;-74
2023/01/20 05:31:52;;;;;;;14.77;10.03;;;-0.10;99.90;;;;;;4950293;28;20475;-74
2023/01/20 05:34:17;;;;;;;15.97;9.60;;;-0.10;99.90;;;;;;4949033;28;20482;-74
2023/01/20 05:36:43;;;;;;;16.60;9.93;;;-0.10;99.90;;;;;;4932735;29;20669;-74
2023/01/20 05:39:08;;;;;;;10.90;8.90;;;-0.10;99.90;;;;;;4932883;29;20232;-74
2023/01/20 05:41:34;;;;;;;18.50;9.27;;;-0.10;99.90;;;;;;4932135;29;20245;-73
2023/01/20 05:43:59;;;;;;;13.73;8.30;;;0.00;99.90;;;;;;4932975;29;20692;-74
2023/01/20 05:46:25;;;;;;;14.27;8.23;;;-0.10;99.90;;;;;;4948319;29;20203;-73
2023/01/20 05:48:50;;;;;;;15.67;9.43;;;0.00;99.90;;;;;;4951458;28;20223;-74
2023/01/20 05:51:15;;;;;;;16.87;9.33;;;0.00;99.90;;;;;;4951723;28;20690;-73
2023/01/20 05:53:41;;;;;;;16.30;10.23;;;0.00;99.90;;;;;;4952760;28;20193;-73
2023/01/20 05:56:07;;;;;;;14.43;9.07;;;-0.10;99.90;;;;;;4943669;28;20203;-74
2023/01/20 05:58:32;;;;;;;24.73;11.90;;;0.00;99.90;;;;;;4936645;29;20281;-73
2023/01/20 06:01:05;;;;;;;16.93;10.50;;;0.00;99.90;;;;;;4936507;29;20293;-73
2023/01/20 06:03:31;;;;;;;14.17;9.70;;;-0.10;99.90;;;;;;4936093;29;20191;-72
2023/01/20 06:06:01;;;;;;;20.27;12.40;;;-0.10;99.90;;;;;;4936435;29;20452;-73
2023/01/20 06:08:27;;;;;;;21.70;10.93;;;-0.10;99.90;;;;;;4936641;29;20223;-74
2023/01/20 06:10:53;;;;;;;25.20;15.77;;;-0.10;99.90;;;;;;4937066;29;20454;-73
2023/01/20 06:13:18;;;;;;;30.57;18.30;;;-0.10;99.90;;;;;;4936655;29;20194;-74
2023/01/20 06:15:44;;;;;;;20.60;13.13;;;-0.10;99.90;;;;;;4936979;29;20429;-72
2023/01/20 06:18:11;;;;;;;21.67;10.80;;;-0.20;99.90;;;;;;4936897;29;20205;-73
2023/01/20 06:20:37;;;;;;;13.53;8.07;;;-0.20;99.90;;;;;;4936033;29;20561;-74
2023/01/20 06:23:03;;;;;;;12.97;7.50;;;-0.20;99.90;;;;;;4935722;29;20429;-74
2023/01/20 06:25:28;;;;;;;13.90;8.87;;;-0.20;99.90;;;;;;4936293;29;20798;-73
2023/01/20 06:27:54;;;;;;;22.03;9.97;;;-0.20;99.90;;;;;;4935622;29;20681;-72
2023/01/20 06:30:19;;;;;;;13.67;8.80;;;-0.10;99.90;;;;;;4935946;29;20218;-72
2023/01/20 06:32:47;;;;;;;18.80;11.77;;;-0.20;99.90;;;;;;4935306;29;20208;-73
2023/01/20 06:35:12;;;;;;;28.23;15.90;;;-0.10;99.90;;;;;;4935921;29;20207;-73
2023/01/20 06:37:38;;;;;;;23.10;15.77;;;-0.10;99.90;;;;;;4935332;29;20427;-74
2023/01/20 06:40:04;;;;;;;18.17;10.43;;;-0.20;99.90;;;;;;4935992;29;20643;-73
2023/01/20 06:42:30;;;;;;;14.77;10.40;;;-0.20;99.90;;;;;;4935804;29;20207;-73
2023/01/20 06:44:56;;;;;;;16.53;9.53;;;-0.20;99.90;;;;;;4935162;29;20806;-73
2023/01/20 06:47:22;;;;;;;19.97;11.90;;;-0.20;99.90;;;;;;4935639;29;20409;-73
2023/01/20 06:49:47;;;;;;;13.40;8.67;;;-0.20;99.90;;;;;;4936786;29;20218;-73
2023/01/20 06:52:13;;;;;;;12.00;8.67;;;-0.30;99.90;;;;;;4954397;28;20681;-74
2023/01/20 06:54:38;;;;;;;13.57;9.50;;;-0.30;99.90;;;;;;4927744;29;20325;-72
2023/01/20 06:57:04;;;;;;;10.47;7.70;;;-0.40;99.90;;;;;;4931990;29;20269;-70
2023/01/20 06:59:30;;;;;;;12.47;8.50;;;-0.40;99.90;;;;;;4941534;29;20233;-71
2023/01/20 07:01:55;;;;;;;12.47;8.23;;;-0.40;99.90;;;;;;4953139;29;20487;-73
2023/01/20 07:04:21;;;;;;;15.03;9.30;;;-0.40;99.90;;;;;;4952982;28;20693;-72
2023/01/20 07:06:46;;;;;;;15.93;9.40;;;-0.40;99.90;;;;;;4953101;28;20679;-72
2023/01/20 07:09:12;;;;;;;11.13;7.70;;;-0.30;99.90;;;;;;4952336;28;20216;-73
2023/01/20 07:11:38;;;;;;;13.97;8.67;;;-0.30;99.90;;;;;;4953780;28;20219;-72
2023/01/20 07:14:04;;;;;;;13.90;8.40;;;-0.30;99.90;;;;;;4952534;28;20216;-72
2023/01/20 07:16:30;;;;;;;11.90;8.70;;;-0.30;99.90;;;;;;4954169;28;20556;-73
2023/01/20 07:18:55;;;;;;;12.80;8.63;;;-0.30;99.90;;;;;;4953489;28;20439;-74
2023/01/20 07:21:21;;;;;;;14.03;8.77;;;-0.20;99.90;;;;;;4954100;28;20222;-72
2023/01/20 07:23:47;;;;;;;14.13;8.00;;;-0.20;99.90;;;;;;4953356;28;20624;-72
2023/01/20 07:26:18;;;;;;;13.70;8.50;;;-0.20;99.90;;;;;;4954315;28;20458;-72
2023/01/20 07:28:44;;;;;;;13.87;8.60;;;-0.20;99.90;;;;;;4954344;28;20526;-72
2023/01/20 07:31:21;;;;;;;12.80;8.43;;;-0.10;99.90;;;;;;4954810;28;20875;-72
2023/01/20 07:33:48;;;;;;;14.00;9.50;;;-0.10;99.90;;;;;;4953745;28;20192;-73
2023/01/20 07:36:15;;;;;;;10.80;7.67;;;-0.10;99.90;;;;;;4954309;28;20436;-73
2023/01/20 07:38:41;;;;;;;13.13;9.00;;;-0.10;99.90;;;;;;4953811;28;20451;-70
2023/01/20 07:41:10;;;;;;;14.87;8.00;;;0.00;99.90;;;;;;4954415;28;20467;-71
2023/01/20 07:43:36;;;;;;;14.03;8.30;;;0.00;99.90;;;;;;4953514;28;20681;-71
2023/01/20 07:46:03;;;;;;;16.67;8.77;;;0.00;99.90;;;;;;4927058;29;20442;-73
2023/01/20 07:48:31;;;;;;;16.00;10.13;;;0.00;99.90;;;;;;4934991;29;20252;-72
2023/01/20 07:51:02;;;;;;;14.13;9.10;;;0.00;99.90;;;;;;4934422;29;20826;-71
2023/01/20 07:53:35;;;;;;;14.57;8.00;;;0.00;99.90;;;;;;4934359;29;20459;-72
2023/01/20 07:56:10;;;;;;;23.77;9.13;;;0.10;99.90;;;;;;4953167;29;20762;-72
2023/01/20 07:58:36;;;;;;;16.33;8.43;;;0.10;99.90;;;;;;4953148;28;20828;-72
2023/01/20 08:01:23;;;;;;;15.87;8.23;;;0.20;99.90;;;;;;4953143;29;20806;-74
2023/01/20 08:03:49;;;;;;;17.77;8.80;;;0.20;99.90;;;;;;4952298;28;20425;-72
2023/01/20 08:06:18;;;;;;;13.80;8.97;;;0.30;99.90;;;;;;4953131;28;20490;-72
2023/01/20 08:08:44;;;;;;;14.13;8.90;;;0.30;99.90;;;;;;4952464;28;20482;-72
2023/01/20 08:11:12;;;;;;;17.13;9.40;;;0.40;99.90;;;;;;4948835;28;20976;-72
2023/01/20 08:13:38;;;;;;;11.43;8.30;;;0.40;99.90;;;;;;4933749;29;20433;-69
2023/01/20 08:16:06;;;;;;;22.57;10.73;;;0.50;99.90;;;;;;4926384;29;20428;-72
2023/01/20 08:18:32;;;;;;;14.40;9.30;;;0.50;99.90;;;;;;4933477;29;20451;-72
2023/01/20 08:20:58;;;;;;;11.90;9.10;;;0.60;99.90;;;;;;4933505;29;20459;-72
2023/01/20 08:23:24;;;;;;;17.47;8.33;;;0.60;99.90;;;;;;4933469;29;20443;-73
2023/01/20 08:25:58;;;;;;;14.80;9.30;;;0.60;99.90;;;;;;4942920;29;20929;-73
2023/01/20 08:28:24;;;;;;;12.37;8.07;;;0.70;99.90;;;;;;4952645;28;20220;-72
2023/01/20 08:30:50;;;;;;;13.10;9.27;;;0.80;99.90;;;;;;4951982;28;20996;-73
2023/01/20 08:33:15;;;;;;;21.60;8.97;;;0.90;99.90;;;;;;4952359;28;20780;-70
2023/01/20 08:35:41;;;;;;;12.90;8.10;;;0.90;99.90;;;;;;4952217;28;20218;-71
2023/01/20 08:38:06;;;;;;;13.00;8.60;;;1.00;99.90;;;;;;4952709;28;20212;-72
2023/01/20 08:40:32;;;;;;;14.83;8.53;;;1.10;99.90;;;;;;4945947;28;20272;-72
2023/01/20 08:42:57;;;;;;;13.53;8.00;;;1.20;99.90;;;;;;4933126;29;20273;-72
2023/01/20 08:45:23;;;;;;;12.13;8.17;;;1.20;99.90;;;;;;4933873;29;20201;-72
2023/01/20 08:47:48;;;;;;;15.77;8.87;;;1.20;99.90;;;;;;4933606;29;20566;-70
2023/01/20 08:50:14;;;;;;;12.17;8.03;;;1.20;99.90;;;;;;4933607;29;20217;-72
2023/01/20 08:52:41;;;;;;;23.30;12.90;;;1.20;99.90;;;;;;4933363;29;20237;-70
2023/01/20 08:55:07;;;;;;;21.33;10.50;;;1.30;99.90;;;;;;4924902;29;20807;-72
2023/01/20 08:57:33;;;;;;;17.20;11.97;;;1.30;99.90;;;;;;4933993;29;20430;-73
2023/01/20 08:59:58;;;;;;;11.57;9.00;;;1.30;99.90;;;;;;4951371;29;20527;-72
2023/01/20 09:02:24;;;;;;;11.90;8.93;;;1.30;99.90;;;;;;4946811;28;20644;-72
2023/01/20 09:04:50;;;;;;;12.77;9.00;;;1.40;99.90;;;;;;4934454;29;20190;-71
2023/01/20 09:07:18;;;;;;;12.00;9.10;;;1.50;99.90;;;;;;4951487;28;20285;-73
2023/01/20 09:09:44;;;;;;;12.33;8.50;;;1.50;99.90;;;;;;4943938;28;20478;-72
2023/01/20 09:12:10;;;;;;;14.13;7.60;;;1.60;99.90;;;;;;4944966;29;20453;-73
2023/01/20 09:14:35;;;;;;;11.40;7.70;;;1.60;99.90;;;;;;4952475;28;20185;-71
2023/01/20 09:17:01;;;;;;;10.83;7.67;;;1.60;99.90;;;;;;4952232;28;20210;-73
2023/01/20 09:19:27;;;;;;;15.80;7.80;;;1.60;99.90;;;;;;4952407;28;20191;-73
2023/01/20 09:21:53;;;;;;;15.07;8.60;;;1.60;99.90;;;;;;4951698;28;20511;-72
2023/01/20 09:24:19;;;;;;;10.50;7.87;;;1.70;99.90;;;;;;4938620;29;20809;-73
2023/01/20 09:26:46;;;;;;;11.33;7.60;;;1.80;99.90;;;;;;4933514;29;20184;-71
2023/01/20 09:29:15;;;;;;;18.90;9.00;;;1.80;99.90;;;;;;4947611;29;20468;-72
2023/01/20 09:31:43;;;;;;;13.63;8.50;;;1.80;99.90;;;;;;4956319;28;20510;-73
2023/01/20 09:34:09;;;;;;;12.77;8.90;;;2.00;99.90;;;;;;4941739;29;20794;-74
2023/01/20 09:36:35;;;;;;;18.63;8.70;;;1.90;99.90;;;;;;4958681;28;20429;-74
2023/01/20 09:45:23;;;;;;;11.20;8.20;;;2.00;99.90;;;;;;4918897;29;20444;-73
2023/01/20 09:47:49;;;;;;;16.87;9.30;;;1.80;99.90;;;;;;4917627;29;20447;-73
2023/01/20 09:53:17;;;;;;;13.07;9.13;;;1.90;99.90;;;;;;4909648;29;20230;-74
2023/01/20 09:55:54;;;;;;;11.00;8.23;;;1.90;99.90;;;;;;4928492;28;20445;-73
2023/01/20 09:58:28;;;;;;;13.70;8.23;;;1.90;99.90;;;;;;4931414;29;20427;-74
2023/01/20 10:01:17;;;;;;;11.50;8.20;;;2.00;99.90;;;;;;4936369;29;20550;-73
2023/01/20 10:03:49;;;;;;;14.87;8.37;;;2.00;99.90;;;;;;4933185;29;20435;-73
2023/01/20 10:06:40;;;;;;;15.20;8.93;;;2.20;99.90;;;;;;4941629;29;20427;-74
2023/01/20 10:09:20;;;;;;;14.27;7.50;;;2.10;99.90;;;;;;4952448;28;20474;-72
2023/01/20 10:11:47;;;;;;;13.90;8.50;;;2.10;99.90;;;;;;4936096;29;20979;-71
2023/01/20 10:14:22;;;;;;;11.00;7.60;;;2.60;99.90;;;;;;4936184;29;20435;-73
2023/01/20 10:16:55;;;;;;;14.83;10.03;;;3.20;99.90;;;;;;4936223;29;20522;-72
2023/01/20 10:19:33;;;;;;;14.87;9.80;;;3.50;99.90;;;;;;4935207;29;20455;-73
2023/01/20 10:22:25;;;;;;;14.30;9.10;;;3.50;99.90;;;;;;4935830;29;20471;-73
2023/01/20 10:24:58;;;;;;;12.00;8.03;;;3.40;99.90;;;;;;4935805;29;20527;-73
2023/01/20 10:27:28;;;;;;;11.97;7.90;;;3.60;99.90;;;;;;4936236;29;20882;-73
2023/01/20 10:30:08;;;;;;;10.63;6.60;;;4.00;99.90;;;;;;4936006;29;20474;-73
2023/01/20 10:32:59;;;;;;;8.73;6.47;;;4.50;99.90;;;;;;4934761;29;21008;-74
2023/01/20 10:35:27;;;;;;;11.27;7.20;;;5.00;99.90;;;;;;4930176;29;20484;-74
2023/01/20 10:37:54;;;;;;;8.63;6.40;;;5.40;99.90;;;;;;4935902;29;20482;-73
2023/01/20 10:40:42;;;;;;;8.90;6.10;;;5.70;99.90;;;;;;4934847;29;20445;-70
2023/01/20 10:43:13;;;;;;;7.33;5.27;;;6.10;99.90;;;;;;4938435;29;20434;-73
2023/01/20 10:46:04;;;;;;;7.23;4.67;;;6.30;99.90;;;;;;4955084;28;20434;-73
2023/01/20 10:48:51;;;;;;;8.83;5.80;;;6.20;99.90;;;;;;4930443;29;20910;-73
2023/01/20 10:51:32;;;;;;;9.20;6.27;;;6.30;99.90;;;;;;4932502;29;20458;-74
2023/01/20 10:54:27;;;;;;;23.93;11.77;;;6.30;99.90;;;;;;4953933;28;20433;-74
2023/01/20 10:56:57;;;;;;;13.33;7.50;;;6.80;99.90;;;;;;4953767;28;20461;-74
2023/01/20 10:59:44;;;;;;;10.50;6.17;;;7.00;99.90;;;;;;4935710;29;20462;-74
2023/01/20 11:02:24;;;;;;;6.70;4.93;;;7.40;99.90;;;;;;4934916;29;20458;-74
2023/01/20 11:05:01;;;;;;;8.80;6.30;;;7.30;99.90;;;;;;4935300;29;20438;-71
2023/01/20 11:07:28;;;;;;;9.63;6.03;;;7.10;99.90;;;;;;4935687;29;20935;-73
2023/01/20 11:09:54;;;;;;;7.60;6.00;;;7.00;99.90;;;;;;4935284;29;20481;-73
2023/01/20 11:12:25;;;;;;;13.40;5.93;;;6.60;99.90;;;;;;4935217;29;20957;-73
2023/01/20 11:14:54;;;;;;;8.77;6.10;;;6.10;99.90;;;;;;4935531;29;20202;-72
2023/01/20 11:17:20;;;;;;;7.90;6.03;;;5.90;99.90;;;;;;4936932;29;20957;-74
2023/01/20 11:19:53;;;;;;;7.13;4.70;;;5.50;99.90;;;;;;4937154;29;20434;-73
2023/01/20 11:22:33;;;;;;;7.13;4.27;;;5.30;99.90;;;;;;4928114;29;20807;-74
2023/01/20 11:25:02;;;;;;;3.43;3.13;;;5.50;99.90;;;;;;4936289;29;20422;-73
2023/01/20 11:27:39;;;;;;;5.67;3.90;;;5.90;99.90;;;;;;4941521;28;20503;-74
2023/01/20 11:30:07;;;;;;;6.50;4.00;;;6.30;99.90;;;;;;4934791;29;20497;-74
2023/01/20 11:32:38;;;;;;;6.17;3.20;;;6.70;99.90;;;;;;4940636;29;20458;-74
2023/01/20 11:35:24;;;;;;;6.13;3.70;;;6.70;99.90;;;;;;4954001;28;20429;-73
2023/01/20 11:37:50;;;;;;;7.50;3.60;;;6.70;99.90;;;;;;4944891;29;20488;-71
2023/01/20 11:40:18;;;;;;;7.00;5.23;;;7.00;99.90;;;;;;4927522;29;21018;-73
2023/01/20 11:42:45;;;;;;;5.63;4.33;;;6.80;99.90;;;;;;4934572;29;20207;-73
2023/01/20 11:45:33;;;;;;;8.33;5.10;;;6.70;99.90;;;;;;4944524;29;20433;-72
2023/01/20 11:48:17;;;;;;;1999.90;999.90;;;6.70;99.90;;;;;;4953110;28;20431;-69
2023/01/20 11:50:48;;;;;;;1999.90;999.90;;;6.50;99.90;;;;;;4953082;28;20541;-72
2023/01/20 11:53:26;;;;;;;1999.90;999.90;;;6.50;99.90;;;;;;4952196;28;20429;-72
2023/01/20 11:55:58;;;;;;;1999.90;999.90;;;6.60;99.90;;;;;;4952731;28;20435;-71
2023/01/20 11:58:30;;;;;;;22.17;4.60;;;6.60;99.90;;;;;;4952657;28;20433;-73
2023/01/20 12:01:04;;;;;;;22.80;5.10;;;6.50;99.90;;;;;;4953204;28;20580;-72
2023/01/20 12:03:49;;;;;;;21.13;5.57;;;6.70;99.90;;;;;;4953417;28;20429;-73
2023/01/20 12:06:23;;;;;;;27.37;8.00;;;6.40;99.90;;;;;;4952979;28;20844;-73
2023/01/20 12:09:04;;;;;;;21.07;5.30;;;6.40;99.90;;;;;;4953364;28;20902;-73
2023/01/20 12:11:33;;;;;;;36.37;4.30;;;6.40;99.90;;;;;;4928414;29;20443;-73
2023/01/20 12:14:22;;;;;;;22.67;4.43;;;6.40;99.90;;;;;;4934178;29;20424;-73
2023/01/20 12:16:56;;;;;;;27.30;4.33;;;6.30;99.90;;;;;;4934597;29;20431;-73
2023/01/20 12:19:32;;;;;;;36.60;6.03;;;6.40;99.90;;;;;;4926864;29;20460;-73
2023/01/20 12:22:02;;;;;;;36.27;5.93;;;6.30;99.90;;;;;;4933789;29;20998;-71
2023/01/20 12:25:06;;;;;;;36.40;5.83;;;6.00;99.90;;;;;;4934314;29;20438;-71
2023/01/20 12:27:26;;;;;;;35.70;5.70;;;5.90;99.90;;;;;;4945733;29;20427;-72
2023/01/20 12:29:55;;;;;;;34.33;5.33;;;5.70;99.90;;;;;;4952751;28;20896;-72
2023/01/20 12:32:21;;;;;;;36.63;6.00;;;5.50;99.90;;;;;;4952535;28;20450;-72
2023/01/20 12:34:47;;;;;;;35.27;7.00;;;5.30;99.90;;;;;;4952994;28;20944;-72
2023/01/20 12:37:42;;;;;;;35.40;6.60;;;5.00;99.90;;;;;;4952357;28;20797;-73
2023/01/20 12:40:19;;;;;;;35.80;7.20;;;4.70;99.90;;;;;;4952807;28;20222;-72
2023/01/20 12:43:05;;;;;;;40.27;6.40;;;4.50;99.90;;;;;;4944848;28;20467;-73
2023/01/20 12:45:46;;;;;;;36.10;7.13;;;4.40;99.90;;;;;;4927879;29;20469;-72
2023/01/20 12:48:38;;;;;;;35.70;6.43;;;4.30;99.90;;;;;;4936304;29;20578;-72
2023/01/20 12:51:56;;;;;;;39.27;6.90;;;4.20;99.90;;;;;;4935655;28;20548;-72
2023/01/20 12:54:56;;;;;;;35.40;7.13;;;4.10;99.90;;;;;;4914637;29;20497;-72
2023/01/20 12:57:46;;;;;;;38.07;6.13;;;4.00;99.90;;;;;;4937556;29;20458;-73
2023/01/20 13:00:12;;;;;;;38.03;6.60;;;3.90;99.90;;;;;;4950898;29;20952;-72
2023/01/20 13:03:05;;;;;;;38.07;7.00;;;3.90;99.90;;;;;;4952689;28;20457;-72
2023/01/20 13:06:11;;;;;;;40.07;5.40;;;3.80;99.90;;;;;;4931768;29;20217;-72
2023/01/20 13:09:07;;;;;;;38.90;8.07;;;3.80;99.90;;;;;;4933062;29;20508;-73
2023/01/20 13:11:59;;;;;;;36.47;6.37;;;3.80;99.90;;;;;;4931961;29;20444;-70
2023/01/20 13:14:51;;;;;;;36.57;6.30;;;3.70;99.90;;;;;;4930727;29;20421;-72
2023/01/20 13:17:27;;;;;;;35.03;5.03;;;3.60;99.90;;;;;;4943494;29;20460;-72
2023/01/20 13:19:56;;;;;;;32.40;5.17;;;3.70;99.90;;;;;;4937652;29;20947;-72
2023/01/20 13:22:23;;;;;;;33.23;5.03;;;3.60;99.90;;;;;;4929321;29;20952;-69
2023/01/20 13:24:54;;;;;;;37.03;5.23;;;3.60;99.90;;;;;;4937548;29;20941;-72
2023/01/20 13:27:33;;;;;;;33.40;4.60;;;3.60;99.90;;;;;;4936819;29;20957;-72
2023/01/20 13:30:02;;;;;;;34.27;4.60;;;3.60;99.90;;;;;;4952306;29;20472;-70
2023/01/20 13:32:32;;;;;;;38.23;6.60;;;3.60;99.90;;;;;;4937058;29;20462;-72
2023/01/20 13:34:59;;;;;;;32.97;4.63;;;3.60;99.90;;;;;;4943178;29;20468;-70
2023/01/20 13:37:32;;;;;;;35.20;4.97;;;3.70;99.90;;;;;;4930310;29;20453;-72
2023/01/20 13:39:59;;;;;;;42.53;8.20;;;3.70;99.90;;;;;;4936137;29;20449;-71
2023/01/20 13:42:47;;;;;;;41.43;6.67;;;3.60;99.90;;;;;;4943567;29;20512;-71
2023/01/20 13:45:13;;;;;;;38.93;5.00;;;3.60;99.90;;;;;;4935318;29;20453;-71
2023/01/20 13:48:01;;;;;;;36.00;4.77;;;3.50;99.90;;;;;;4948990;29;20461;-72
2023/01/20 13:50:33;;;;;;;40.03;5.63;;;3.50;99.90;;;;;;4943248;28;20280;-72
2023/01/20 13:52:59;;;;;;;34.17;3.20;;;3.50;99.90;;;;;;4941566;28;20459;-69
2023/01/20 13:55:52;;;;;;;35.90;3.93;;;3.40;99.90;;;;;;4954838;28;20460;-72
2023/01/20 13:58:27;;;;;;;37.20;3.63;;;3.30;99.90;;;;;;4943844;28;20270;-72
2023/01/20 14:01:01;;;;;;;33.30;3.77;;;3.30;99.90;;;;;;4942868;29;20447;-73
2023/01/20 14:03:28;;;;;;;35.13;3.73;;;3.30;99.90;;;;;;4940031;28;20469;-72
2023/01/20 14:06:18;;;;;;;32.60;3.50;;;3.30;99.90;;;;;;4947509;28;20456;-72
2023/01/20 14:08:46;;;;;;;31.70;3.73;;;3.30;99.90;;;;;;4938315;28;20484;-73
2023/01/20 14:11:13;;;;;;;29.40;3.30;;;3.20;99.90;;;;;;4935677;29;20457;-74
2023/01/20 14:13:40;;;;;;;35.50;4.03;;;3.20;99.90;;;;;;4935385;28;20448;-73
2023/01/20 14:16:26;;;;;;;35.40;3.80;;;3.20;99.90;;;;;;4935939;29;20547;-73
2023/01/20 14:18:58;;;;;;;41.07;3.70;;;3.20;99.90;;;;;;4942563;28;20578;-74
2023/01/20 14:21:27;;;;;;;31.63;3.17;;;3.20;99.90;;;;;;4952766;28;21217;-72
2023/01/20 14:23:53;;;;;;;32.80;3.20;;;3.30;99.90;;;;;;4948636;28;20433;-72
2023/01/20 14:26:23;;;;;;;32.27;3.70;;;3.30;99.90;;;;;;4938607;29;23431;-72
2023/01/20 14:28:54;;;;;;;33.50;3.10;;;3.30;99.90;;;;;;4955036;28;20527;-72
2023/01/20 14:31:40;;;;;;;31.83;3.20;;;3.30;99.90;;;;;;4954174;28;20457;-72
2023/01/20 14:34:26;;;;;;;32.37;3.47;;;3.30;99.90;;;;;;4954199;28;20428;-72
2023/01/20 14:36:53;;;;;;;33.10;2.90;;;3.30;99.90;;;;;;4948328;28;20428;-72
2023/01/20 14:39:22;;;;;;;30.07;3.20;;;3.30;99.90;;;;;;4935733;29;20448;-73
2023/01/20 14:41:54;;;;;;;32.17;3.13;;;3.40;99.90;;;;;;4935814;29;20462;-72